首页
METAR-TAF:

METAR-TAF

机场 :

Ontario Municipal Airport

安大略, 俄勒冈州, 美国

纬度: 44-01-10N, 经度: 117-00-35W, 海拔: 667米

当前天气观测

该预报发布于58分钟前的22:53 UTC
风速6节,风向
温度 37°C
湿度 21%
气压 1014 hPa
能見度: 12.9公里
天空无云

METAR: KONO 152253Z AUTO 10006KT 8SM CLR 37/11 A2994 RMK AO2 SLP116 T03720106

时间: 17:51 (23:51 UTC)

预报

该预报发布于6小时和31分钟前的17:20 UTC
预报有效从15日的 18点(UTC)到 16日的 18点(UTC)
风速6节,风向多变
能見度: 9.7公里
多云层高于12000英尺
从 16日的 0400点(UTC)
风速8节,风向西北
能見度: 8.0公里
散云层高于20000英尺
烟,

TAF: KONO 151720Z 1518/1618 VRB06KT 6SM FU BKN120 FM160400 32008KT 5SM FU SCT200

超过4000个机场的气象观测和天气预报(METAR&TAF报告)。

可查询的气象台以黄色和红色小点在地图上表示。

将鼠标移到小点上方,可查看气象台名称。

然后点击查看天气观测和预报。

如需切换地图:点击带黑十字的绿色按钮放大地图;点击带横线的绿色按钮缩小地图;或者点击绿色箭头查看邻近地区的地图。


METAR-TAF: